createdAt,value
2017-01-05T00:00:16.542Z,82.85
2017-01-05T00:00:44.598Z,83.53
2017-01-05T00:01:12.870Z,83.44
2017-01-05T00:01:41.146Z,83.44
2017-01-05T00:02:09.271Z,83.14
2017-01-05T00:02:37.578Z,83.14
2017-01-05T00:03:05.652Z,83.44
2017-01-05T00:04:17.043Z,83.92
2017-01-05T00:04:45.309Z,83.92
2017-01-05T00:05:13.462Z,82.85
2017-01-05T00:05:41.570Z,83.24
2017-01-05T00:06:09.537Z,83.34
2017-01-05T00:06:37.598Z,83.24
2017-01-05T00:07:05.774Z,83.34
2017-01-05T00:07:33.952Z,83.34
2017-01-05T00:08:02.170Z,83.34
2017-01-05T00:08:30.379Z,83.63
2017-01-05T00:08:58.550Z,83.92
2017-01-05T00:10:09.855Z,83.72
2017-01-05T00:10:38.209Z,83.24
2017-01-05T00:11:06.468Z,83.24
2017-01-05T00:11:34.668Z,83.24
2017-01-05T00:12:02.911Z,83.44
2017-01-05T00:12:31.157Z,83.53
2017-01-05T00:12:59.433Z,83.53
2017-01-05T00:13:27.797Z,83.53
2017-01-05T00:13:55.824Z,83.44
2017-01-05T00:14:23.846Z,83.82
2017-01-05T00:14:52.115Z,83.44
2017-01-05T00:16:03.319Z,83.63
2017-01-05T00:16:31.678Z,84.01
2017-01-05T00:16:59.841Z,83.72
2017-01-05T00:17:28.049Z,84.11
2017-01-05T00:17:56.140Z,83.82
2017-01-05T00:18:24.202Z,84.01
2017-01-05T00:18:52.280Z,84.01
2017-01-05T00:19:20.550Z,83.63
2017-01-05T00:19:48.670Z,83.92
2017-01-05T00:20:16.786Z,84.21
2017-01-05T00:20:45.150Z,84.01
2017-01-05T00:21:56.362Z,84.21
2017-01-05T00:22:24.534Z,83.92
2017-01-05T00:22:52.696Z,84.11
2017-01-05T00:23:20.709Z,84.21
2017-01-05T00:23:48.851Z,84.01
2017-01-05T00:24:17.184Z,83.72
2017-01-05T00:24:45.175Z,84.01
2017-01-05T00:25:13.535Z,84.21
2017-01-05T00:25:41.744Z,83.72
2017-01-05T00:26:09.946Z,84.31
2017-01-05T00:26:38.124Z,84.11
2017-01-05T00:27:49.422Z,84.01
2017-01-05T00:28:17.682Z,84.41
2017-01-05T00:28:45.656Z,84.11
2017-01-05T00:29:13.675Z,83.82
2017-01-05T00:29:41.724Z,83.82
2017-01-05T00:30:09.777Z,84.31
2017-01-05T00:30:37.953Z,84.11
2017-01-05T00:31:06.036Z,84.21
2017-01-05T00:31:33.967Z,84.41
2017-01-05T00:32:02.075Z,84.21
2017-01-05T00:32:30.067Z,84.21
2017-01-05T00:33:41.181Z,83.82
2017-01-05T00:34:09.256Z,84.01
2017-01-05T00:34:37.424Z,83.97
2017-01-05T00:35:05.529Z,84.21
2017-01-05T00:35:33.582Z,83.82
2017-01-05T00:36:01.643Z,84.11
2017-01-05T00:36:30.006Z,84.17
2017-01-05T00:36:58.276Z,84.17
2017-01-05T00:37:26.489Z,84.07
2017-01-05T00:37:54.607Z,84.41
2017-01-05T00:38:22.600Z,83.97
2017-01-05T00:39:33.615Z,84.11
2017-01-05T00:40:01.686Z,84.17
2017-01-05T00:40:29.855Z,83.78
2017-01-05T00:40:57.985Z,84.07
2017-01-05T00:41:26.226Z,83.78
2017-01-05T00:41:54.279Z,83.97
2017-01-05T00:42:22.278Z,84.11
2017-01-05T00:42:50.554Z,83.82
2017-01-05T00:43:18.769Z,84.11
2017-01-05T00:43:46.893Z,84.17
2017-01-05T00:44:14.887Z,84.31
2017-01-05T00:45:26.281Z,84.41
2017-01-05T00:45:54.351Z,84.11
2017-01-05T00:46:22.420Z,84.11
2017-01-05T00:46:50.530Z,84.21
2017-01-05T00:47:18.768Z,84.11
2017-01-05T00:47:47.008Z,83.97
2017-01-05T00:48:15.277Z,84.46
2017-01-05T00:48:43.449Z,84.31
2017-01-05T00:49:11.663Z,84.41
2017-01-05T00:49:39.686Z,84.36
2017-01-05T00:50:07.855Z,84.6
2017-01-05T00:51:18.961Z,84.27
2017-01-05T00:51:47.132Z,84.6
2017-01-05T00:52:15.296Z,84.6
2017-01-05T00:52:43.595Z,84.56
2017-01-05T00:53:11.743Z,84.46
2017-01-05T00:53:39.734Z,84.66
2017-01-05T00:54:08.098Z,84.75
2017-01-05T00:54:36.465Z,84.66
2017-01-05T00:55:04.589Z,84.46
2017-01-05T00:55:32.810Z,84.41
2017-01-05T00:56:00.890Z,84.79
2017-01-05T00:57:12.095Z,84.6
2017-01-05T00:57:40.263Z,84.7
2017-01-05T00:58:08.517Z,84.94
2017-01-05T00:58:36.813Z,84.46
2017-01-05T00:59:04.963Z,84.36
2017-01-05T00:59:33.111Z,84.5
2017-01-05T01:00:01.384Z,84.79
2017-01-05T01:00:29.654Z,84.46
2017-01-05T01:00:57.778Z,84.56
2017-01-05T01:01:25.998Z,84.7
2017-01-05T01:01:54.359Z,84.56
2017-01-05T01:03:05.566Z,84.46
2017-01-05T01:03:33.731Z,84.36
2017-01-05T01:04:01.983Z,84.36
2017-01-05T01:04:30.180Z,84.75
2017-01-05T01:04:58.424Z,84.56
2017-01-05T01:05:26.390Z,84.66
2017-01-05T01:05:54.754Z,84.66
2017-01-05T01:06:23.026Z,85.14
2017-01-05T01:06:51.244Z,84.85
2017-01-05T01:07:19.454Z,84.75
2017-01-05T01:07:47.720Z,85.14
2017-01-05T01:08:59.021Z,84.75
2017-01-05T01:09:27.283Z,85.14
2017-01-05T01:09:55.630Z,84.85
2017-01-05T01:10:23.734Z,85.04
2017-01-05T01:10:51.982Z,85.04
2017-01-05T01:11:20.314Z,85.04
2017-01-05T01:11:48.403Z,84.85
2017-01-05T01:12:16.772Z,84.94
2017-01-05T01:12:44.897Z,85.24
2017-01-05T01:13:13.204Z,84.94
2017-01-05T01:13:41.291Z,85.04
2017-01-05T01:14:52.502Z,84.94
2017-01-05T01:15:20.499Z,85.04
2017-01-05T01:15:48.850Z,84.94
2017-01-05T01:16:16.880Z,85.24
2017-01-05T01:16:45.038Z,85.04
2017-01-05T01:17:13.189Z,85.04
2017-01-05T01:17:41.549Z,85.04
2017-01-05T01:18:09.733Z,85.04
2017-01-05T01:18:37.947Z,85.14
2017-01-05T01:19:06.158Z,85.04
2017-01-05T01:19:34.246Z,85.04
2017-01-05T01:20:45.366Z,85.63
2017-01-05T01:21:13.542Z,85.43
2017-01-05T01:21:41.801Z,85.63
2017-01-05T01:22:09.920Z,86.01
2017-01-05T01:22:37.902Z,85.82
2017-01-05T01:23:06.157Z,85.92
2017-01-05T01:23:34.426Z,85.53
2017-01-05T01:24:02.603Z,85.63
2017-01-05T01:24:30.826Z,85.82
2017-01-05T01:24:59.133Z,85.82
2017-01-05T01:25:27.403Z,85.82
2017-01-05T01:26:38.808Z,85.92
2017-01-05T01:27:07.165Z,85.82
2017-01-05T01:27:35.332Z,86.3
2017-01-05T01:28:03.633Z,85.82
2017-01-05T01:28:31.967Z,85.82
2017-01-05T01:29:00.222Z,85.63
2017-01-05T01:29:28.497Z,85.53
2017-01-05T01:29:56.765Z,85.92
2017-01-05T01:30:25.073Z,85.72
2017-01-05T01:30:53.296Z,85.82
2017-01-05T01:31:21.468Z,85.63
2017-01-05T01:32:32.772Z,85.82
2017-01-05T01:33:01.132Z,85.63
2017-01-05T01:33:29.304Z,85.72
2017-01-05T01:33:57.505Z,85.68
2017-01-05T01:34:25.842Z,85.78
2017-01-05T01:34:54.092Z,85.92
2017-01-05T01:35:22.458Z,85.78
2017-01-05T01:35:50.738Z,86.01
2017-01-05T01:36:18.770Z,85.68
2017-01-05T01:36:46.893Z,85.88
2017-01-05T01:37:15.164Z,85.29
2017-01-05T01:38:26.461Z,85.58
2017-01-05T01:38:54.827Z,85.78
2017-01-05T01:39:23.094Z,85.78
2017-01-05T01:39:51.394Z,85.58
2017-01-05T01:40:19.728Z,85.68
2017-01-05T01:40:47.885Z,85.58
2017-01-05T01:41:15.901Z,85.68
2017-01-05T01:41:44.086Z,85.58
2017-01-05T01:42:12.416Z,85.88
2017-01-05T01:42:40.675Z,85.68
2017-01-05T01:43:09.047Z,85.78
2017-01-05T01:44:20.350Z,85.88
2017-01-05T01:44:48.431Z,85.78
2017-01-05T01:45:16.616Z,85.78
2017-01-05T01:45:44.921Z,86.16
2017-01-05T01:46:13.175Z,86.07
2017-01-05T01:46:41.417Z,86.07
2017-01-05T01:47:09.689Z,86.07
2017-01-05T01:47:38.052Z,86.07
2017-01-05T01:48:06.274Z,85.88
2017-01-05T01:48:34.588Z,86.07
2017-01-05T01:49:02.770Z,86.07
2017-01-05T01:50:14.158Z,86.36
2017-01-05T01:50:42.338Z,86.65
2017-01-05T01:51:10.507Z,86.26
2017-01-05T01:51:38.624Z,86.75
2017-01-05T01:52:06.808Z,86.65
2017-01-05T01:52:35.069Z,86.55
2017-01-05T01:53:03.436Z,86.65
2017-01-05T01:53:31.705Z,86.75
2017-01-05T01:53:59.827Z,86.46
2017-01-05T01:54:28.139Z,86.55
2017-01-05T01:54:56.323Z,86.46
2017-01-05T01:56:07.635Z,86.46
2017-01-05T01:56:35.906Z,86.26
2017-01-05T01:57:04.164Z,86.46
2017-01-05T01:57:32.380Z,86.55
2017-01-05T01:58:00.622Z,86.85
2017-01-05T01:58:28.685Z,86.94
2017-01-05T01:58:56.957Z,86.94
2017-01-05T01:59:25.230Z,86.94
2017-01-05T01:59:53.260Z,86.99
2017-01-05T02:00:21.565Z,87.62
2017-01-05T02:00:49.838Z,87.52
2017-01-05T02:02:01.132Z,87.33
2017-01-05T02:02:29.302Z,87.33
2017-01-05T02:02:57.555Z,87.33
2017-01-05T02:03:25.761Z,87.62
2017-01-05T02:03:54.095Z,87.62
2017-01-05T02:04:22.247Z,87.82
2017-01-05T02:04:50.329Z,87.58
2017-01-05T02:05:18.601Z,87.68
2017-01-05T02:05:46.815Z,87.96
2017-01-05T02:06:14.932Z,88.16
2017-01-05T02:06:43.203Z,88.16
2017-01-05T02:07:54.504Z,88.2
2017-01-05T02:08:22.865Z,88.01
2017-01-05T02:08:51.215Z,87.87
2017-01-05T02:09:19.322Z,88.4
2017-01-05T02:09:47.473Z,88.06
2017-01-05T02:10:15.625Z,87.52
2017-01-05T02:10:43.895Z,88.06
2017-01-05T02:11:12.069Z,88.01
2017-01-05T02:11:40.280Z,88.2
2017-01-05T02:12:08.489Z,87.48
2017-01-05T02:12:36.851Z,87.48
2017-01-05T02:13:48.075Z,88.06
2017-01-05T02:14:16.338Z,88.06
2017-01-05T02:14:44.606Z,88.26
2017-01-05T02:15:12.719Z,88.1
2017-01-05T02:15:41.067Z,88.16
2017-01-05T02:16:09.314Z,88.06
2017-01-05T02:16:37.678Z,88.01
2017-01-05T02:17:06.044Z,88.2
2017-01-05T02:17:34.159Z,88.26
2017-01-05T02:18:02.364Z,88.26
2017-01-05T02:18:30.635Z,88.06
2017-01-05T02:19:42.028Z,88.16
2017-01-05T02:20:10.291Z,87.87
2017-01-05T02:20:38.455Z,88.2
2017-01-05T02:21:06.749Z,87.87
2017-01-05T02:21:34.715Z,88.06
2017-01-05T02:22:02.862Z,87.72
2017-01-05T02:22:31.132Z,88.26
2017-01-05T02:22:59.402Z,87.96
2017-01-05T02:23:27.708Z,88.35
2017-01-05T02:23:55.824Z,88.26
2017-01-05T02:24:24.000Z,88.06
2017-01-05T02:25:35.209Z,88.74
2017-01-05T02:26:03.286Z,88.35
2017-01-05T02:26:31.543Z,88.35
2017-01-05T02:26:59.645Z,88.45
2017-01-05T02:27:27.901Z,88.65
2017-01-05T02:27:56.140Z,88.65
2017-01-05T02:28:24.681Z,88.45
2017-01-05T02:28:52.861Z,89.03
2017-01-05T02:29:20.976Z,88.16
2017-01-05T02:29:49.090Z,88.16
2017-01-05T02:30:17.451Z,88.35
2017-01-05T02:31:28.569Z,88.55
2017-01-05T02:31:56.837Z,88.74
2017-01-05T02:32:25.096Z,88.79
2017-01-05T02:32:53.204Z,88.93
2017-01-05T02:33:21.455Z,88.6
2017-01-05T02:33:49.791Z,88.51
2017-01-05T02:34:18.061Z,89.23
2017-01-05T02:34:46.237Z,89.23
2017-01-05T02:35:14.448Z,88.55
2017-01-05T02:35:42.602Z,88.6
2017-01-05T02:36:10.873Z,88.79
2017-01-05T02:37:22.019Z,88.89
2017-01-05T02:37:50.280Z,88.89
2017-01-05T02:38:18.444Z,89.18
2017-01-05T02:38:46.646Z,89.09
2017-01-05T02:39:14.980Z,89.09
2017-01-05T02:39:43.136Z,89.28
2017-01-05T02:40:11.411Z,89.57
2017-01-05T02:40:39.679Z,89.09
2017-01-05T02:41:07.893Z,89.18
2017-01-05T02:41:36.200Z,89.18
2017-01-05T02:42:04.472Z,89.28
2017-01-05T02:43:15.679Z,89.09
2017-01-05T02:43:43.754Z,89.09
2017-01-05T02:44:11.916Z,89.37
2017-01-05T02:44:40.023Z,89.47
2017-01-05T02:45:08.087Z,89.47
2017-01-05T02:45:36.427Z,89.67
2017-01-05T02:46:04.516Z,89.47
2017-01-05T02:46:32.793Z,89.57
2017-01-05T02:47:01.009Z,89.57
2017-01-05T02:47:29.215Z,90.16
2017-01-05T02:47:57.400Z,89.76
2017-01-05T02:49:08.703Z,90.25
2017-01-05T02:49:36.972Z,90.25
2017-01-05T02:50:05.134Z,90.25
2017-01-05T02:50:33.337Z,90.06
2017-01-05T02:51:01.488Z,90.44
2017-01-05T02:51:29.826Z,90.25
2017-01-05T02:51:58.004Z,90.34
2017-01-05T02:52:26.276Z,90.25
2017-01-05T02:52:54.584Z,90.44
2017-01-05T02:53:22.795Z,90.69
2017-01-05T02:53:50.874Z,90.69
2017-01-05T02:55:02.080Z,90.98
2017-01-05T02:55:30.338Z,90.73
2017-01-05T02:55:58.517Z,90.98
2017-01-05T02:56:26.720Z,90.78
2017-01-05T02:56:54.865Z,90.69
2017-01-05T02:57:23.199Z,91.17
2017-01-05T02:57:51.379Z,91.08
2017-01-05T02:58:19.743Z,91.56
2017-01-05T02:58:47.959Z,90.98
2017-01-05T02:59:16.169Z,91.17
2017-01-05T02:59:44.435Z,91.27
2017-01-05T03:00:55.719Z,91.75
2017-01-05T03:01:24.098Z,91.17
2017-01-05T03:01:52.355Z,91.27
2017-01-05T03:02:20.462Z,91.27
2017-01-05T03:02:48.518Z,91.27
2017-01-05T03:03:16.857Z,91.08
2017-01-05T03:03:45.216Z,91.37
2017-01-05T03:04:13.487Z,91.47
2017-01-05T03:04:41.609Z,91.75
2017-01-05T03:05:09.817Z,91.66
2017-01-05T03:05:38.182Z,91.47
2017-01-05T03:06:49.478Z,91.66
2017-01-05T03:07:17.647Z,91.75
2017-01-05T03:07:45.811Z,91.75
2017-01-05T03:08:14.013Z,91.56
2017-01-05T03:08:42.249Z,91.56
2017-01-05T03:09:10.404Z,91.75
2017-01-05T03:09:38.677Z,91.17
2017-01-05T03:10:07.038Z,91.27
2017-01-05T03:10:35.167Z,91.37
2017-01-05T03:11:03.407Z,91.27
2017-01-05T03:11:31.774Z,91.56
2017-01-05T03:12:43.166Z,91.66
2017-01-05T03:13:11.434Z,91.66
2017-01-05T03:13:39.597Z,91.75
2017-01-05T03:14:07.890Z,92.05
2017-01-05T03:14:35.943Z,91.85
2017-01-05T03:15:04.185Z,91.71
2017-01-05T03:15:32.551Z,91.52
2017-01-05T03:16:00.826Z,92.19
2017-01-05T03:16:29.136Z,92
2017-01-05T03:16:57.345Z,92.19
2017-01-05T03:17:25.521Z,92.24
2017-01-05T03:18:36.915Z,92.49
2017-01-05T03:19:05.186Z,92.19
2017-01-05T03:19:33.537Z,92.19
2017-01-05T03:20:01.641Z,92.39
2017-01-05T03:20:29.787Z,92.49
2017-01-05T03:20:57.871Z,92.29
2017-01-05T03:21:26.238Z,92.39
2017-01-05T03:21:54.512Z,92.58
2017-01-05T03:22:22.635Z,92.29
2017-01-05T03:22:50.659Z,92.49
2017-01-05T03:23:18.941Z,92.77
2017-01-05T03:24:30.242Z,92.97
2017-01-05T03:24:58.505Z,92.49
2017-01-05T03:25:26.767Z,92.87
2017-01-05T03:25:55.062Z,93.16
2017-01-05T03:26:23.392Z,92.97
2017-01-05T03:26:51.734Z,93.35
2017-01-05T03:27:19.910Z,93.35
2017-01-05T03:27:48.636Z,92.97
2017-01-05T03:28:16.850Z,93.35
2017-01-05T03:28:45.162Z,93.07
2017-01-05T03:29:13.435Z,93.35
2017-01-05T03:30:24.790Z,93.07
2017-01-05T03:30:52.960Z,93.16
2017-01-05T03:31:21.216Z,93.16
2017-01-05T03:31:49.415Z,93.07
2017-01-05T03:32:17.652Z,93.65
2017-01-05T03:32:45.894Z,93.26
2017-01-05T03:33:14.256Z,93.35
2017-01-05T03:33:42.622Z,93.26
2017-01-05T03:34:10.652Z,93.07
2017-01-05T03:34:38.773Z,93.07
2017-01-05T03:35:07.039Z,93.35
2017-01-05T03:36:18.243Z,93.21
2017-01-05T03:36:46.415Z,93.3
2017-01-05T03:37:14.769Z,93.6
2017-01-05T03:37:43.065Z,92.92
2017-01-05T03:38:11.214Z,92.63
2017-01-05T03:38:39.367Z,93.02
2017-01-05T03:39:07.546Z,92.82
2017-01-05T03:39:35.823Z,92.92
2017-01-05T03:40:03.853Z,92.82
2017-01-05T03:40:32.062Z,92.63
2017-01-05T03:41:00.240Z,93.02
2017-01-05T03:42:11.263Z,93.02
2017-01-05T03:42:39.337Z,92.82
2017-01-05T03:43:07.594Z,92.24
2017-01-05T03:43:35.797Z,92.43
2017-01-05T03:44:04.035Z,92.63
2017-01-05T03:44:32.281Z,92.24
2017-01-05T03:45:00.643Z,92.33
2017-01-05T03:45:28.915Z,92.24
2017-01-05T03:45:57.127Z,92.14
2017-01-05T03:46:25.347Z,92.33
2017-01-05T03:46:53.617Z,92.53
2017-01-05T03:48:04.918Z,91.75
2017-01-05T03:48:33.092Z,91.85
2017-01-05T03:49:01.348Z,91.66
2017-01-05T03:49:29.646Z,92.05
2017-01-05T03:49:57.979Z,91.95
2017-01-05T03:50:26.320Z,91.85
2017-01-05T03:50:54.687Z,91.56
2017-01-05T03:51:23.160Z,91.75
2017-01-05T03:51:51.285Z,91.17
2017-01-05T03:52:19.592Z,90.98
2017-01-05T03:52:47.865Z,90.88
2017-01-05T03:53:59.160Z,91.37
2017-01-05T03:54:27.357Z,90.98
2017-01-05T03:54:55.706Z,91.17
2017-01-05T03:55:24.004Z,90.98
2017-01-05T03:55:52.343Z,91.56
2017-01-05T03:56:20.497Z,91.27
2017-01-05T03:56:48.770Z,91.37
2017-01-05T03:57:17.041Z,91.17
2017-01-05T03:57:45.350Z,91.66
2017-01-05T03:58:13.659Z,91.75
2017-01-05T03:58:42.023Z,91.66
2017-01-05T03:59:53.322Z,91.17
2017-01-05T04:00:21.488Z,90.88
2017-01-05T04:00:49.653Z,91.37
2017-01-05T04:01:17.857Z,91.37
2017-01-05T04:01:46.194Z,91.08
2017-01-05T04:02:14.534Z,91.37
2017-01-05T04:02:42.813Z,91.17
2017-01-05T04:03:11.090Z,91.37
2017-01-05T04:03:39.304Z,91.17
2017-01-05T04:04:07.604Z,90.88
2017-01-05T04:04:35.963Z,91.08
2017-01-05T04:05:47.172Z,90.88
2017-01-05T04:06:15.436Z,91.27
2017-01-05T04:06:43.506Z,91.08
2017-01-05T04:07:11.619Z,91.75
2017-01-05T04:07:39.858Z,91.47
2017-01-05T04:08:08.007Z,91.47
2017-01-05T04:08:36.280Z,91.66
2017-01-05T04:09:04.641Z,91.75
2017-01-05T04:09:32.858Z,91.56
2017-01-05T04:10:01.065Z,91.66
2017-01-05T04:10:29.428Z,91.66
2017-01-05T04:11:40.820Z,91.56
2017-01-05T04:12:09.088Z,91.66
2017-01-05T04:12:37.352Z,91.66
2017-01-05T04:13:05.467Z,91.66
2017-01-05T04:13:33.801Z,91.47
2017-01-05T04:14:02.145Z,91.37
2017-01-05T04:14:30.416Z,91.66
2017-01-05T04:14:58.696Z,91.56
2017-01-05T04:15:27.006Z,91.47
2017-01-05T04:15:55.216Z,91.37
2017-01-05T04:16:23.401Z,91.75
2017-01-05T04:17:34.707Z,91.66
2017-01-05T04:18:02.975Z,91.66
2017-01-05T04:18:31.331Z,91.85
2017-01-05T04:18:59.445Z,91.75
2017-01-05T04:19:27.593Z,91.75
2017-01-05T04:19:55.745Z,91.56
2017-01-05T04:20:23.925Z,91.66
2017-01-05T04:20:52.289Z,91.56
2017-01-05T04:21:20.503Z,91.56
2017-01-05T04:21:48.808Z,91.66
2017-01-05T04:22:17.081Z,91.66
2017-01-05T04:23:28.286Z,91.75
2017-01-05T04:23:56.455Z,91.66
2017-01-05T04:24:24.806Z,91.85
2017-01-05T04:24:53.008Z,91.85
2017-01-05T04:25:21.250Z,91.17
2017-01-05T04:25:49.310Z,91.66
2017-01-05T04:26:17.583Z,91.47
2017-01-05T04:26:45.760Z,91.47
2017-01-05T04:27:14.061Z,91.56
2017-01-05T04:27:42.205Z,91.47
2017-01-05T04:28:10.387Z,91.56
2017-01-05T04:29:21.591Z,91.66
2017-01-05T04:29:49.669Z,91.56
2017-01-05T04:30:17.923Z,91.66
2017-01-05T04:30:46.122Z,91.66
2017-01-05T04:31:14.361Z,91.17
2017-01-05T04:31:42.422Z,91.47
2017-01-05T04:32:10.689Z,91.47
2017-01-05T04:32:39.055Z,91.27
2017-01-05T04:33:07.086Z,91.37
2017-01-05T04:33:35.043Z,91.17
2017-01-05T04:34:03.028Z,91.08
2017-01-05T04:35:14.324Z,91.66
2017-01-05T04:35:42.493Z,91.66
2017-01-05T04:36:10.652Z,91.47
2017-01-05T04:36:38.760Z,91.56
2017-01-05T04:37:07.001Z,91.66
2017-01-05T04:37:35.147Z,91.66
2017-01-05T04:38:03.419Z,91.75
2017-01-05T04:38:31.598Z,91.66
2017-01-05T04:38:59.806Z,91.47
2017-01-05T04:39:28.017Z,91.66
2017-01-05T04:39:56.097Z,91.66
2017-01-05T04:41:07.312Z,91.66
2017-01-05T04:41:35.479Z,91.75
2017-01-05T04:42:03.736Z,91.75
2017-01-05T04:42:31.847Z,91.66
2017-01-05T04:43:00.087Z,91.66
2017-01-05T04:43:28.236Z,91.85
2017-01-05T04:43:56.516Z,91.66
2017-01-05T04:44:24.696Z,91.56
2017-01-05T04:44:52.911Z,91.66
2017-01-05T04:45:21.118Z,91.75
2017-01-05T04:45:49.481Z,91.66
2017-01-05T04:47:00.777Z,91.75
2017-01-05T04:47:29.038Z,91.66
2017-01-05T04:47:57.200Z,91.56
2017-01-05T04:48:25.306Z,91.95
2017-01-05T04:48:53.360Z,91.85
2017-01-05T04:49:21.512Z,92.05
2017-01-05T04:49:49.689Z,91.66
2017-01-05T04:50:17.967Z,91.27
2017-01-05T04:50:46.174Z,91.66
2017-01-05T04:51:14.199Z,91.95
2017-01-05T04:51:42.379Z,91.56
2017-01-05T04:52:53.771Z,91.47
2017-01-05T04:53:22.124Z,91.47
2017-01-05T04:53:50.381Z,91.56
2017-01-05T04:54:18.577Z,91.56
2017-01-05T04:54:46.720Z,91.66
2017-01-05T04:55:14.773Z,91.66
2017-01-05T04:55:43.039Z,91.66
2017-01-05T04:56:11.216Z,91.66
2017-01-05T04:56:39.336Z,91.66
2017-01-05T04:57:07.551Z,91.66
2017-01-05T04:57:35.815Z,91.56
2017-01-05T04:58:47.110Z,91.66
2017-01-05T04:59:15.371Z,91.66
2017-01-05T04:59:43.717Z,91.56
2017-01-05T05:00:11.826Z,91.75
2017-01-05T05:00:40.068Z,91.85
2017-01-05T05:01:08.312Z,91.75
2017-01-05T05:01:36.493Z,92.05
2017-01-05T05:02:04.851Z,91.56
2017-01-05T05:02:32.971Z,91.75
2017-01-05T05:03:01.082Z,91.56
2017-01-05T05:03:29.348Z,91.71
2017-01-05T05:04:40.640Z,91.9
2017-01-05T05:05:08.899Z,92.19
2017-01-05T05:05:37.243Z,92
2017-01-05T05:06:05.442Z,92
2017-01-05T05:06:33.687Z,92.29
2017-01-05T05:07:01.841Z,92.49
2017-01-05T05:07:30.116Z,92.39
2017-01-05T05:07:58.383Z,92.19
2017-01-05T05:08:26.508Z,92.49
2017-01-05T05:08:54.711Z,92.39
2017-01-05T05:09:23.071Z,92.19
2017-01-05T05:10:34.454Z,92.19
2017-01-05T05:11:02.620Z,92.49
2017-01-05T05:11:30.965Z,92.53
2017-01-05T05:11:59.073Z,92.29
2017-01-05T05:12:27.313Z,92.19
2017-01-05T05:12:55.463Z,92.63
2017-01-05T05:13:23.826Z,92.24
2017-01-05T05:13:52.193Z,92.24
2017-01-05T05:14:20.310Z,92.24
2017-01-05T05:14:48.612Z,92.33
2017-01-05T05:15:16.882Z,92.29
2017-01-05T05:16:28.273Z,92.29
2017-01-05T05:16:56.635Z,92.19
2017-01-05T05:17:24.896Z,92.29
2017-01-05T05:17:53.197Z,92.29
2017-01-05T05:18:21.439Z,92.19
2017-01-05T05:18:49.776Z,92.24
2017-01-05T05:19:18.049Z,92.1
2017-01-05T05:19:46.224Z,92.1
2017-01-05T05:20:14.533Z,92.53
2017-01-05T05:20:42.840Z,92.29
2017-01-05T05:21:11.110Z,92.29
2017-01-05T05:22:22.316Z,92.49
2017-01-05T05:22:50.483Z,92.39
2017-01-05T05:23:18.744Z,92.39
2017-01-05T05:23:47.037Z,92.68
2017-01-05T05:24:15.273Z,92.77
2017-01-05T05:24:43.429Z,92.58
2017-01-05T05:25:11.605Z,92.77
2017-01-05T05:25:39.874Z,92.77
2017-01-05T05:26:08.088Z,92.77
2017-01-05T05:26:36.388Z,92.68
2017-01-05T05:27:04.748Z,92.68
2017-01-05T05:28:15.954Z,93.35
2017-01-05T05:28:44.311Z,93.26
2017-01-05T05:29:12.661Z,93.45
2017-01-05T05:29:40.767Z,93.35
2017-01-05T05:30:09.099Z,93.35
2017-01-05T05:30:37.151Z,93.16
2017-01-05T05:31:05.419Z,93.26
2017-01-05T05:31:33.688Z,93.45
2017-01-05T05:32:01.711Z,93.45
2017-01-05T05:32:29.826Z,93.16
2017-01-05T05:32:58.097Z,93.55
2017-01-05T05:34:09.297Z,93.26
2017-01-05T05:34:37.463Z,92.97
2017-01-05T05:35:05.808Z,93.26
2017-01-05T05:35:34.100Z,93.07
2017-01-05T05:36:02.258Z,93.07
2017-01-05T05:36:30.590Z,93.35
2017-01-05T05:36:58.672Z,93.45
2017-01-05T05:37:26.849Z,93.84
2017-01-05T05:37:55.058Z,93.84
2017-01-05T05:38:23.268Z,93.26
2017-01-05T05:38:51.534Z,93.55
2017-01-05T05:40:02.926Z,93.55
2017-01-05T05:40:31.190Z,93.26
2017-01-05T05:40:59.441Z,93.84
2017-01-05T05:41:27.735Z,93.84
2017-01-05T05:41:55.972Z,93.94
2017-01-05T05:42:24.211Z,93.84
2017-01-05T05:42:52.476Z,93.94
2017-01-05T05:43:20.746Z,93.84
2017-01-05T05:43:48.954Z,93.65
2017-01-05T05:44:17.069Z,93.94
2017-01-05T05:44:45.242Z,93.84
2017-01-05T05:45:56.540Z,94.32
2017-01-05T05:46:24.616Z,94.13
2017-01-05T05:46:52.866Z,94.13
2017-01-05T05:47:20.880Z,94.32
2017-01-05T05:47:49.057Z,94.13
2017-01-05T05:48:17.393Z,94.23
2017-01-05T05:48:45.660Z,94.04
2017-01-05T05:49:13.837Z,94.23
2017-01-05T05:49:41.983Z,94.32
2017-01-05T05:50:10.196Z,94.62
2017-01-05T05:50:38.560Z,94.32
2017-01-05T05:51:49.854Z,94.62
2017-01-05T05:52:18.121Z,94.62
2017-01-05T05:52:46.376Z,94.71
2017-01-05T05:53:14.570Z,94.32
2017-01-05T05:53:42.810Z,94.23
2017-01-05T05:54:11.145Z,94.81
2017-01-05T05:54:39.413Z,94.9
2017-01-05T05:55:07.776Z,94.71
2017-01-05T05:55:35.896Z,94.71
2017-01-05T05:56:04.013Z,94.71
2017-01-05T05:56:32.281Z,94.81
2017-01-05T05:57:43.394Z,94.81
2017-01-05T05:58:11.652Z,95.1
2017-01-05T05:58:39.909Z,94.81
2017-01-05T05:59:08.019Z,94.71
2017-01-05T05:59:36.263Z,94.9
2017-01-05T06:00:04.416Z,95
2017-01-05T06:00:32.504Z,94.71
2017-01-05T06:01:00.587Z,95.68
2017-01-05T06:01:28.523Z,95.87
2017-01-05T06:01:56.543Z,95.68
2017-01-05T06:02:24.722Z,95.49
2017-01-05T06:03:36.110Z,95.39
2017-01-05T06:04:04.376Z,95.39
2017-01-05T06:04:32.637Z,95.58
2017-01-05T06:05:00.743Z,95.39
2017-01-05T06:05:28.984Z,95.58
2017-01-05T06:05:57.170Z,95.49
2017-01-05T06:06:25.444Z,95.58
2017-01-05T06:06:53.720Z,95.29
2017-01-05T06:07:21.924Z,95.49
2017-01-05T06:07:50.037Z,95.29
2017-01-05T06:08:18.216Z,95.29
2017-01-05T06:09:29.610Z,95.39
2017-01-05T06:09:57.873Z,95.29
2017-01-05T06:10:26.224Z,95.58
2017-01-05T06:10:54.514Z,95.49
2017-01-05T06:11:22.757Z,95.2
2017-01-05T06:11:50.810Z,95.29
2017-01-05T06:12:18.983Z,95.68
2017-01-05T06:12:47.064Z,95.49
2017-01-05T06:13:15.282Z,95.58
2017-01-05T06:13:43.399Z,95.58
2017-01-05T06:14:11.582Z,95.49
2017-01-05T06:15:22.602Z,95.49
2017-01-05T06:15:50.899Z,95.49
2017-01-05T06:16:19.063Z,95.2
2017-01-05T06:16:47.172Z,95.49
2017-01-05T06:17:15.230Z,95.39
2017-01-05T06:17:43.379Z,96.17
2017-01-05T06:18:11.649Z,95.78
2017-01-05T06:18:39.641Z,95.87
2017-01-05T06:19:07.858Z,95.78
2017-01-05T06:19:35.983Z,95.78
2017-01-05T06:20:04.254Z,95.97
2017-01-05T06:21:15.551Z,95.87
2017-01-05T06:21:43.905Z,96.45
2017-01-05T06:22:11.882Z,95.97
2017-01-05T06:22:39.898Z,96.36
2017-01-05T06:23:07.954Z,96.36
2017-01-05T06:23:36.132Z,96.36
2017-01-05T06:24:04.465Z,96.26
2017-01-05T06:24:32.550Z,96.45
2017-01-05T06:25:00.762Z,96.55
2017-01-05T06:25:28.965Z,96.26
2017-01-05T06:25:57.049Z,96.26
2017-01-05T06:27:08.251Z,96.55
2017-01-05T06:27:36.326Z,96.45
2017-01-05T06:28:04.582Z,96.07
2017-01-05T06:28:32.878Z,96.45
2017-01-05T06:29:00.932Z,96.26
2017-01-05T06:29:29.180Z,96.26
2017-01-05T06:29:57.358Z,96.17
2017-01-05T06:30:25.623Z,96.45
2017-01-05T06:30:53.842Z,96.45
2017-01-05T06:31:21.871Z,96.26
2017-01-05T06:31:50.144Z,96.45
2017-01-05T06:33:01.445Z,96.45
2017-01-05T06:33:29.710Z,95.97
2017-01-05T06:33:58.063Z,95.58
2017-01-05T06:34:26.262Z,95.68
2017-01-05T06:34:54.594Z,96.07
2017-01-05T06:35:22.649Z,95.87
2017-01-05T06:35:50.918Z,96.07
2017-01-05T06:36:19.191Z,96.17
2017-01-05T06:36:47.312Z,95.58
2017-01-05T06:37:15.422Z,95.58
2017-01-05T06:37:43.781Z,95.97
2017-01-05T06:38:55.079Z,95.97
2017-01-05T06:39:23.246Z,95.87
2017-01-05T06:39:51.411Z,95.87
2017-01-05T06:40:19.517Z,95.97
2017-01-05T06:40:47.758Z,95.97
2017-01-05T06:41:15.999Z,95.49
2017-01-05T06:41:44.267Z,95.29
2017-01-05T06:42:12.442Z,95.58
2017-01-05T06:42:40.661Z,95.49
2017-01-05T06:43:08.872Z,95.49
2017-01-05T06:43:37.050Z,95.58
2017-01-05T06:44:48.350Z,95.68
2017-01-05T06:45:16.618Z,95.58
2017-01-05T06:45:44.877Z,95.58
2017-01-05T06:46:12.982Z,95.68
2017-01-05T06:46:41.224Z,96.07
2017-01-05T06:47:09.369Z,95.97
2017-01-05T06:47:37.639Z,95.97
2017-01-05T06:48:06.005Z,95.97
2017-01-05T06:48:34.122Z,95.87
2017-01-05T06:49:02.318Z,95.87
2017-01-05T06:49:30.681Z,95.97
2017-01-05T06:50:41.980Z,96.17
2017-01-05T06:51:10.239Z,96.26
2017-01-05T06:51:38.305Z,96.17
2017-01-05T06:52:06.417Z,96.55
2017-01-05T06:52:34.658Z,96.26
2017-01-05T06:53:02.799Z,96.45
2017-01-05T06:53:30.883Z,96.45
2017-01-05T06:53:59.247Z,96.17